createdAt,value
2022-08-09T00:00:00.528Z,1.60
2022-08-09T00:09:24.700Z,1.70
2022-08-09T00:12:04.375Z,1.50
2022-08-09T00:14:38.245Z,2.17
2022-08-09T00:17:05.140Z,1.80
2022-08-09T00:19:31.533Z,1.63
2022-08-09T00:22:00.834Z,1.75
2022-08-09T00:24:31.859Z,1.80
2022-08-09T00:26:59.828Z,1.63
2022-08-09T00:29:39.260Z,1.88
2022-08-09T00:32:13.639Z,1.70
2022-08-09T00:34:52.968Z,1.85
2022-08-09T00:37:19.421Z,1.88
2022-08-09T00:40:12.361Z,1.50
2022-08-09T00:44:16.564Z,1.75
2022-08-09T00:45:20.284Z,1.90
2022-08-09T00:47:47.348Z,1.73
2022-08-09T00:50:14.676Z,1.83
2022-08-09T00:52:42.103Z,1.92
2022-08-09T00:55:16.779Z,1.88
2022-08-09T00:57:55.676Z,1.80
2022-08-09T01:00:27.004Z,1.58
2022-08-09T01:03:16.648Z,1.42
2022-08-09T01:06:17.510Z,1.77
2022-08-09T01:09:02.595Z,1.90
2022-08-09T01:11:53.450Z,1.85
2022-08-09T01:14:48.352Z,1.50
2022-08-09T01:17:25.004Z,1.60
2022-08-09T01:20:15.471Z,1.63
2022-08-09T01:22:59.453Z,1.60
2022-08-09T01:25:53.693Z,2.35
2022-08-09T01:28:22.420Z,1.73
2022-08-09T01:30:55.580Z,1.70
2022-08-09T01:33:28.000Z,2.00
2022-08-09T01:36:08.043Z,1.80
2022-08-09T01:38:38.643Z,1.70
2022-08-09T01:41:13.102Z,1.83
2022-08-09T01:43:51.738Z,1.50
2022-08-09T01:46:26.658Z,2.13
2022-08-09T01:48:57.397Z,1.95
2022-08-09T01:51:32.406Z,1.80
2022-08-09T01:54:01.936Z,2.00
2022-08-09T01:56:29.950Z,1.70
2022-08-09T01:58:58.998Z,1.85
2022-08-09T02:01:58.497Z,1.85
2022-08-09T02:04:15.471Z,2.00
2022-08-09T02:07:02.941Z,1.70
2022-08-09T02:09:42.640Z,2.05
2022-08-09T02:12:13.482Z,2.00
2022-08-09T02:14:51.738Z,1.90
2022-08-09T02:18:00.292Z,2.10
2022-08-09T02:20:09.938Z,2.00
2022-08-09T02:22:56.537Z,1.80
2022-08-09T02:25:27.495Z,1.75
2022-08-09T02:28:06.346Z,1.83
2022-08-09T02:30:42.836Z,1.75
2022-08-09T02:33:17.972Z,1.75
2022-08-09T02:36:02.815Z,1.83
2022-08-09T02:38:47.900Z,2.00
2022-08-09T02:41:19.576Z,2.30
2022-08-09T02:43:54.675Z,1.80
2022-08-09T02:46:25.521Z,2.03
2022-08-09T02:48:56.663Z,1.70
2022-08-09T02:51:26.565Z,2.53
2022-08-09T02:54:00.969Z,2.00
2022-08-09T02:56:31.568Z,2.03
2022-08-09T02:59:01.974Z,2.10
2022-08-09T03:01:58.720Z,2.20
2022-08-09T03:04:19.521Z,2.10
2022-08-09T03:06:48.677Z,1.80
2022-08-09T03:09:17.272Z,2.13
2022-08-09T03:12:05.519Z,1.90
2022-08-09T03:14:31.839Z,2.40
2022-08-09T03:17:01.831Z,1.95
2022-08-09T03:19:59.711Z,2.03
2022-08-09T03:22:24.941Z,2.30
2022-08-09T03:25:05.743Z,2.08
2022-08-09T03:27:45.115Z,2.10
2022-08-09T03:30:14.139Z,1.98
2022-08-09T03:32:58.315Z,2.20
2022-08-09T03:36:14.138Z,1.92
2022-08-09T03:38:16.020Z,2.13
2022-08-09T03:40:54.986Z,2.10
2022-08-09T03:43:21.445Z,2.13
2022-08-09T03:46:04.623Z,2.00
2022-08-09T03:48:37.318Z,2.17
2022-08-09T03:51:56.249Z,2.20
2022-08-09T03:53:57.905Z,2.20
2022-08-09T03:56:26.460Z,2.55
2022-08-09T03:58:53.402Z,2.35
2022-08-09T04:01:22.309Z,2.30
2022-08-09T04:04:01.339Z,2.08
2022-08-09T04:06:30.340Z,1.95
2022-08-09T04:08:56.741Z,2.00
2022-08-09T04:11:23.307Z,1.95
2022-08-09T04:14:53.157Z,2.20
2022-08-09T04:16:37.749Z,2.13
2022-08-09T04:19:05.447Z,2.28
2022-08-09T04:21:40.124Z,1.92
2022-08-09T04:24:07.725Z,2.33
2022-08-09T04:26:37.946Z,2.30
2022-08-09T04:29:10.910Z,2.30
2022-08-09T04:31:46.734Z,2.20
2022-08-09T04:34:14.201Z,2.15
2022-08-09T04:36:45.847Z,2.05
2022-08-09T04:39:16.987Z,2.20
2022-08-09T04:41:44.145Z,2.00
2022-08-09T04:44:12.436Z,2.47
2022-08-09T04:46:59.351Z,2.13
2022-08-09T04:49:52.423Z,2.13
2022-08-09T04:52:26.916Z,2.00
2022-08-09T04:54:55.173Z,2.30
2022-08-09T04:57:24.047Z,2.10
2022-08-09T04:59:52.095Z,1.90
2022-08-09T05:02:18.731Z,2.00
2022-08-09T05:04:45.107Z,2.20
2022-08-09T05:07:19.871Z,2.25
2022-08-09T05:09:49.834Z,2.10
2022-08-09T05:12:16.740Z,2.20
2022-08-09T05:14:43.180Z,2.25
2022-08-09T05:18:36.769Z,2.30
2022-08-09T05:19:57.048Z,1.92
2022-08-09T05:22:33.580Z,2.30
2022-08-09T05:25:11.607Z,2.20
2022-08-09T05:27:46.576Z,2.20
2022-08-09T05:30:15.387Z,2.25
2022-08-09T05:32:50.704Z,2.10
2022-08-09T05:35:17.831Z,2.03
2022-08-09T05:37:47.619Z,2.05
2022-08-09T05:40:15.156Z,2.00
2022-08-09T05:42:42.673Z,2.17
2022-08-09T05:45:10.193Z,2.10
2022-08-09T05:47:52.974Z,2.38
2022-08-09T05:50:35.014Z,2.15
2022-08-09T05:53:11.751Z,2.50
2022-08-09T05:55:48.281Z,2.40
2022-08-09T05:58:19.614Z,1.90
2022-08-09T06:00:46.151Z,2.20
2022-08-09T06:03:12.904Z,2.10
2022-08-09T06:05:54.732Z,2.13
2022-08-09T06:08:30.911Z,2.00
2022-08-09T06:10:59.192Z,2.30
2022-08-09T06:13:28.693Z,2.08
2022-08-09T06:16:00.720Z,1.95
2022-08-09T06:18:28.116Z,2.40
2022-08-09T06:20:57.568Z,1.88
2022-08-09T06:23:58.236Z,2.50
2022-08-09T06:26:15.103Z,2.25
2022-08-09T06:28:49.700Z,1.70
2022-08-09T06:31:31.551Z,1.90
2022-08-09T06:34:07.421Z,2.10
2022-08-09T06:36:34.270Z,1.88
2022-08-09T06:39:01.339Z,1.95
2022-08-09T06:42:01.172Z,2.22
2022-08-09T06:44:18.011Z,2.42
2022-08-09T06:46:45.672Z,2.20
2022-08-09T06:49:12.612Z,1.90
2022-08-09T06:51:42.795Z,1.92
2022-08-09T06:54:14.654Z,2.25
2022-08-09T06:56:45.358Z,2.10
2022-08-09T07:00:55.291Z,3.17
2022-08-09T07:02:04.447Z,2.05
2022-08-09T07:04:32.068Z,2.10
2022-08-09T07:07:00.723Z,2.05
2022-08-09T07:09:57.064Z,2.00
2022-08-09T07:12:17.430Z,2.00
2022-08-09T07:14:44.173Z,1.90
2022-08-09T07:17:11.276Z,1.90
2022-08-09T07:19:38.471Z,1.92
2022-08-09T07:22:05.465Z,2.00
2022-08-09T07:24:40.508Z,1.90
2022-08-09T07:27:33.377Z,2.20
2022-08-09T07:29:59.651Z,2.10
2022-08-09T07:32:32.905Z,2.00
2022-08-09T07:35:02.738Z,1.77
2022-08-09T07:37:30.123Z,1.80
2022-08-09T07:40:12.940Z,2.00
2022-08-09T07:43:00.310Z,1.80
2022-08-09T07:45:37.559Z,2.05
2022-08-09T07:48:05.384Z,2.15
2022-08-09T07:50:34.718Z,1.70
2022-08-09T07:53:04.660Z,1.77
2022-08-09T07:56:02.581Z,1.83
2022-08-09T07:58:18.428Z,1.80
2022-08-09T08:00:55.993Z,1.80
2022-08-09T08:03:31.268Z,1.90
2022-08-09T08:05:58.537Z,2.03
2022-08-09T08:09:02.258Z,1.80
2022-08-09T08:12:09.828Z,1.88
2022-08-09T08:13:58.799Z,1.95
2022-08-09T08:16:31.384Z,1.90
2022-08-09T08:18:59.211Z,1.52
2022-08-09T08:21:26.644Z,2.00
2022-08-09T08:23:55.954Z,1.80
2022-08-09T08:26:26.421Z,1.63
2022-08-09T08:28:53.445Z,1.80
2022-08-09T08:31:19.843Z,1.92
2022-08-09T08:33:53.451Z,1.80
2022-08-09T08:36:28.633Z,2.08
2022-08-09T08:38:56.414Z,1.90
2022-08-09T08:41:24.507Z,2.10
2022-08-09T08:44:09.306Z,1.67
2022-08-09T08:46:59.585Z,1.98
2022-08-09T08:49:29.684Z,1.67
2022-08-09T08:52:10.344Z,2.20
2022-08-09T08:54:37.522Z,1.90
2022-08-09T08:57:05.041Z,1.80
2022-08-09T08:59:46.426Z,1.73
2022-08-09T09:02:30.924Z,1.65
2022-08-09T09:05:06.241Z,1.95
2022-08-09T09:07:42.643Z,1.98
2022-08-09T09:10:10.585Z,1.80
2022-08-09T09:12:37.600Z,1.70
2022-08-09T09:15:06.559Z,1.48
2022-08-09T09:17:49.057Z,2.00
2022-08-09T09:20:18.991Z,1.83
2022-08-09T09:22:56.483Z,1.73
2022-08-09T09:26:03.841Z,1.50
2022-08-09T09:29:02.859Z,1.70
2022-08-09T09:31:17.460Z,1.77
2022-08-09T09:34:19.760Z,1.83
2022-08-09T09:36:53.795Z,1.50
2022-08-09T09:39:23.268Z,1.70
2022-08-09T09:41:50.943Z,1.55
2022-08-09T09:44:27.937Z,1.80
2022-08-09T09:47:04.238Z,1.70
2022-08-09T09:49:49.871Z,1.40
2022-08-09T09:52:36.005Z,1.70
2022-08-09T09:55:23.892Z,1.40
2022-08-09T09:58:03.151Z,1.50
2022-08-09T10:00:32.139Z,1.65
2022-08-09T10:03:00.257Z,1.50
2022-08-09T10:06:03.577Z,1.50
2022-08-09T10:08:27.774Z,1.48
2022-08-09T10:10:55.635Z,1.60
2022-08-09T10:13:24.644Z,1.30
2022-08-09T10:16:56.723Z,1.70
2022-08-09T10:18:59.765Z,1.40
2022-08-09T10:21:26.893Z,1.42
2022-08-09T10:23:55.527Z,1.65
2022-08-09T10:26:24.772Z,1.50
2022-08-09T10:29:21.420Z,1.48
2022-08-09T10:32:37.569Z,1.50
2022-08-09T10:34:32.794Z,1.80
2022-08-09T10:37:01.209Z,1.65
2022-08-09T10:39:28.930Z,1.50
2022-08-09T10:41:55.822Z,1.33
2022-08-09T10:44:26.615Z,1.65
2022-08-09T10:46:57.580Z,1.83
2022-08-09T10:49:49.796Z,1.52
2022-08-09T10:52:48.322Z,1.40
2022-08-09T10:55:24.340Z,1.23
2022-08-09T10:57:55.414Z,1.50
2022-08-09T11:00:31.286Z,1.40
2022-08-09T11:03:14.512Z,1.50
2022-08-09T11:06:16.658Z,1.27
2022-08-09T11:08:47.875Z,1.50
2022-08-09T11:13:50.132Z,1.55
2022-08-09T11:16:38.456Z,1.50
2022-08-09T11:19:10.140Z,1.65
2022-08-09T11:22:04.825Z,1.55
2022-08-09T11:24:58.752Z,1.40
2022-08-09T11:28:09.303Z,1.30
2022-08-09T11:30:33.258Z,1.33
2022-08-09T11:33:16.537Z,1.55
2022-08-09T11:35:54.401Z,1.42
2022-08-09T11:38:32.592Z,1.42
2022-08-09T11:41:38.433Z,1.50
2022-08-09T11:44:07.636Z,1.60
2022-08-09T11:46:54.889Z,1.70
2022-08-09T11:50:54.185Z,1.40
2022-08-09T11:53:57.627Z,1.52
2022-08-09T11:55:53.241Z,1.50
2022-08-09T11:58:32.417Z,1.80
2022-08-09T12:01:09.064Z,1.30
2022-08-09T12:03:57.499Z,1.40
2022-08-09T12:06:32.848Z,1.50
2022-08-09T12:09:06.238Z,1.33
2022-08-09T12:12:03.326Z,1.60
2022-08-09T12:14:36.997Z,1.45
2022-08-09T12:17:34.698Z,1.35
2022-08-09T12:20:00.629Z,1.20
2022-08-09T12:22:29.218Z,1.33
2022-08-09T12:25:36.037Z,1.40
2022-08-09T12:29:12.575Z,1.20
2022-08-09T12:31:00.966Z,1.20
2022-08-09T12:33:51.414Z,1.50
2022-08-09T12:36:27.767Z,1.30
2022-08-09T12:38:59.937Z,1.30
2022-08-09T12:41:33.678Z,1.23
2022-08-09T12:44:07.537Z,1.42
2022-08-09T12:46:39.498Z,1.27
2022-08-09T12:49:08.602Z,1.52
2022-08-09T12:52:00.787Z,1.00
2022-08-09T12:54:21.886Z,1.25
2022-08-09T12:56:53.940Z,1.17
2022-08-09T12:59:22.856Z,1.30
2022-08-09T13:01:58.565Z,1.52
2022-08-09T13:04:38.099Z,1.20
2022-08-09T13:07:13.802Z,1.08
2022-08-09T13:09:40.917Z,1.10
2022-08-09T13:12:10.272Z,1.08
2022-08-09T13:14:43.665Z,1.00
2022-08-09T13:17:44.079Z,1.13
2022-08-09T13:20:14.373Z,1.20
2022-08-09T13:25:54.423Z,1.40
2022-08-09T13:28:33.744Z,1.30
2022-08-09T13:32:13.623Z,1.10
2022-08-09T13:33:58.081Z,1.17
2022-08-09T13:36:40.848Z,1.15
2022-08-09T13:41:50.895Z,1.02
2022-08-09T13:42:17.701Z,1.10
2022-08-09T13:44:46.113Z,1.27
2022-08-09T13:47:31.376Z,1.50
2022-08-09T13:50:08.708Z,1.30
2022-08-09T13:52:40.449Z,1.20
2022-08-09T13:55:13.440Z,1.30
2022-08-09T13:57:53.043Z,1.00
2022-08-09T14:00:27.367Z,1.40
2022-08-09T14:03:02.856Z,1.20
2022-08-09T14:05:59.259Z,1.20
2022-08-09T14:08:17.966Z,1.30
2022-08-09T14:10:52.306Z,1.00
2022-08-09T14:14:15.449Z,1.45
2022-08-09T14:16:14.085Z,1.20
2022-08-09T14:18:45.329Z,1.40
2022-08-09T14:21:17.220Z,1.30
2022-08-09T14:23:55.144Z,1.25
2022-08-09T14:26:32.917Z,1.38
2022-08-09T14:29:07.611Z,1.20
2022-08-09T14:31:54.724Z,1.20
2022-08-09T14:34:31.113Z,1.45
2022-08-09T14:37:07.535Z,1.17
2022-08-09T14:39:46.395Z,1.33
2022-08-09T14:42:39.302Z,1.30
2022-08-09T14:46:40.561Z,1.55
2022-08-09T14:47:58.438Z,1.55
2022-08-09T14:50:30.453Z,1.10
2022-08-09T14:52:57.688Z,1.17
2022-08-09T14:55:24.363Z,1.30
2022-08-09T14:57:51.360Z,1.30
2022-08-09T15:00:18.279Z,1.27
2022-08-09T15:02:47.179Z,1.30
2022-08-09T15:05:16.109Z,1.10
2022-08-09T15:07:45.293Z,1.10
2022-08-09T15:10:14.343Z,1.40
2022-08-09T15:12:45.067Z,1.10
2022-08-09T15:15:13.135Z,1.20
2022-08-09T15:17:41.955Z,1.10
2022-08-09T15:20:15.439Z,1.33
2022-08-09T15:23:02.920Z,1.20
2022-08-09T15:25:44.752Z,1.27
2022-08-09T15:28:26.325Z,1.17
2022-08-09T15:31:00.192Z,1.48
2022-08-09T15:34:17.226Z,1.10
2022-08-09T15:36:16.556Z,1.10
2022-08-09T15:38:42.979Z,1.10
2022-08-09T15:41:10.281Z,1.20
2022-08-09T15:43:38.851Z,1.50
2022-08-09T15:46:28.717Z,1.55
2022-08-09T15:49:21.767Z,1.48
2022-08-09T15:52:03.264Z,1.40
2022-08-09T15:54:33.619Z,1.65
2022-08-09T15:57:09.399Z,1.40
2022-08-09T15:59:37.065Z,1.33
2022-08-09T16:02:04.040Z,1.90
2022-08-09T16:04:32.241Z,1.20
2022-08-09T16:07:01.819Z,1.20
2022-08-09T16:09:32.504Z,1.60
2022-08-09T16:12:15.681Z,1.20
2022-08-09T16:14:42.342Z,2.22
2022-08-09T16:17:09.192Z,1.30
2022-08-09T16:19:36.736Z,1.27
2022-08-09T16:22:03.386Z,1.50
2022-08-09T16:24:33.518Z,1.20
2022-08-09T16:27:00.893Z,1.33
2022-08-09T16:29:37.533Z,1.10
2022-08-09T16:32:33.004Z,1.90
2022-08-09T16:35:00.776Z,1.42
2022-08-09T16:37:55.989Z,1.30
2022-08-09T16:40:29.849Z,1.33
2022-08-09T16:43:04.482Z,1.35
2022-08-09T16:45:31.259Z,1.50
2022-08-09T16:48:50.192Z,1.17
2022-08-09T16:50:49.714Z,1.48
2022-08-09T16:53:32.282Z,1.20
2022-08-09T16:56:06.029Z,1.50
2022-08-09T16:58:36.016Z,1.40
2022-08-09T17:01:04.643Z,1.42
2022-08-09T17:03:31.588Z,1.20
2022-08-09T17:06:08.686Z,1.13
2022-08-09T17:09:02.932Z,1.42
2022-08-09T17:11:40.214Z,1.40
2022-08-09T17:14:25.945Z,1.40
2022-08-09T17:16:59.808Z,1.40
2022-08-09T17:19:47.398Z,1.35
2022-08-09T17:22:24.210Z,1.40
2022-08-09T17:24:55.767Z,1.50
2022-08-09T17:27:29.226Z,1.33
2022-08-09T17:29:55.944Z,1.10
2022-08-09T17:32:34.743Z,1.20
2022-08-09T17:35:11.402Z,1.80
2022-08-09T17:38:12.745Z,1.50
2022-08-09T17:40:27.374Z,1.55
2022-08-09T17:42:59.763Z,1.50
2022-08-09T17:46:02.741Z,1.20
2022-08-09T17:48:28.612Z,1.38
2022-08-09T17:51:06.565Z,1.60
2022-08-09T17:53:41.793Z,1.20
2022-08-09T17:56:09.703Z,1.55
2022-08-09T17:58:36.082Z,1.50
2022-08-09T18:01:02.738Z,1.88
2022-08-09T18:03:30.421Z,1.50
2022-08-09T18:05:58.350Z,1.40
2022-08-09T18:08:27.990Z,1.60
2022-08-09T18:11:02.314Z,1.58
2022-08-09T18:16:16.652Z,1.48
2022-08-09T18:18:49.264Z,1.58
2022-08-09T18:21:21.501Z,1.80
2022-08-09T18:24:11.155Z,1.70
2022-08-09T18:26:37.937Z,1.35
2022-08-09T18:30:38.592Z,1.50
2022-08-09T18:31:55.778Z,1.58
2022-08-09T18:34:24.019Z,1.80
2022-08-09T18:36:50.823Z,1.60
2022-08-09T18:39:22.026Z,1.55
2022-08-09T18:41:52.717Z,1.70
2022-08-09T18:44:22.793Z,1.70
2022-08-09T18:47:07.580Z,1.35
2022-08-09T18:49:43.162Z,1.50
2022-08-09T18:52:14.422Z,1.80
2022-08-09T18:54:52.751Z,1.67
2022-08-09T18:57:22.749Z,1.55
2022-08-09T18:59:57.654Z,1.50
2022-08-09T19:02:32.007Z,1.63
2022-08-09T19:05:20.420Z,1.73
2022-08-09T19:08:03.791Z,1.63
2022-08-09T19:10:37.197Z,1.55
2022-08-09T19:13:20.302Z,1.60
2022-08-09T19:15:51.430Z,1.85
2022-08-09T19:18:34.087Z,1.30
2022-08-09T19:21:09.353Z,1.50
2022-08-09T19:24:32.423Z,1.40
2022-08-09T19:26:29.449Z,1.58
2022-08-09T19:29:01.749Z,1.70
2022-08-09T19:31:30.435Z,1.63
2022-08-09T19:34:22.089Z,1.60
2022-08-09T19:36:51.020Z,1.63
2022-08-09T19:39:17.459Z,1.50
2022-08-09T19:41:47.079Z,1.67
2022-08-09T19:44:15.441Z,1.50
2022-08-09T19:46:50.921Z,1.77
2022-08-09T19:50:10.287Z,1.55
2022-08-09T19:52:07.552Z,1.73
2022-08-09T19:54:33.963Z,1.60
2022-08-09T19:57:00.436Z,1.50
2022-08-09T19:59:58.999Z,1.80
2022-08-09T20:04:23.874Z,1.75
2022-08-09T20:05:11.759Z,1.63
2022-08-09T20:07:58.838Z,1.75
2022-08-09T20:10:36.380Z,1.70
2022-08-09T20:13:05.664Z,1.67
2022-08-09T20:16:37.863Z,1.58
2022-08-09T20:18:20.066Z,1.55
2022-08-09T20:20:51.021Z,1.58
2022-08-09T20:23:19.404Z,1.70
2022-08-09T20:25:51.589Z,1.73
2022-08-09T20:28:34.261Z,1.52
2022-08-09T20:31:04.935Z,2.03
2022-08-09T20:33:39.118Z,1.73
2022-08-09T20:36:08.775Z,1.90
2022-08-09T20:38:57.390Z,1.83
2022-08-09T20:41:34.751Z,1.80
2022-08-09T20:44:06.914Z,1.70
2022-08-09T20:46:44.615Z,1.70
2022-08-09T20:49:16.101Z,1.75
2022-08-09T20:51:44.047Z,1.90
2022-08-09T20:54:16.575Z,1.70
2022-08-09T20:56:47.194Z,1.80
2022-08-09T20:59:17.299Z,1.80
2022-08-09T21:01:51.230Z,1.80
2022-08-09T21:05:52.141Z,1.98
2022-08-09T21:07:11.467Z,1.90
2022-08-09T21:09:55.715Z,1.70
2022-08-09T21:12:32.215Z,1.80
2022-08-09T21:14:58.926Z,2.00
2022-08-09T21:18:23.696Z,2.10
2022-08-09T21:20:23.109Z,1.83
2022-08-09T21:22:54.486Z,1.90
2022-08-09T21:25:44.142Z,1.83
2022-08-09T21:28:34.657Z,2.03
2022-08-09T21:31:16.782Z,2.13
2022-08-09T21:33:45.267Z,1.80
2022-08-09T21:36:18.055Z,2.10
2022-08-09T21:38:45.394Z,2.35
2022-08-09T21:41:25.526Z,2.03
2022-08-09T21:44:09.960Z,2.28
2022-08-09T21:46:36.316Z,1.83
2022-08-09T21:49:03.687Z,2.05
2022-08-09T21:51:35.922Z,2.05
2022-08-09T21:54:09.684Z,2.20
2022-08-09T21:56:54.657Z,2.05
2022-08-09T21:59:25.487Z,2.05
2022-08-09T22:02:00.307Z,1.80
2022-08-09T22:04:55.375Z,1.92
2022-08-09T22:07:14.350Z,1.80
2022-08-09T22:10:00.097Z,1.90
2022-08-09T22:12:30.756Z,2.05
2022-08-09T22:14:58.533Z,2.03
2022-08-09T22:17:25.252Z,2.05
2022-08-09T22:19:57.811Z,1.88
2022-08-09T22:22:26.932Z,2.40
2022-08-09T22:26:06.844Z,1.90
2022-08-09T22:27:39.924Z,2.00
2022-08-09T22:30:07.640Z,1.77
2022-08-09T22:32:34.652Z,2.05
2022-08-09T22:35:06.801Z,2.20
2022-08-09T22:37:49.571Z,1.92
2022-08-09T22:40:34.218Z,1.95
2022-08-09T22:43:00.768Z,1.95
2022-08-09T22:48:14.692Z,2.10
2022-08-09T22:48:34.963Z,1.92
2022-08-09T22:50:59.924Z,1.98
2022-08-09T22:53:44.154Z,1.83
2022-08-09T22:56:31.265Z,2.20
2022-08-09T22:58:59.830Z,2.10
2022-08-09T23:01:26.320Z,1.90
2022-08-09T23:04:04.046Z,2.38
2022-08-09T23:06:51.598Z,2.13
2022-08-09T23:09:18.420Z,2.35
2022-08-09T23:11:44.779Z,2.03
2022-08-09T23:14:17.205Z,1.95
2022-08-09T23:16:44.407Z,2.10
2022-08-09T23:19:10.948Z,2.20
2022-08-09T23:21:39.142Z,1.83
2022-08-09T23:24:07.487Z,1.83
2022-08-09T23:26:38.350Z,1.80
2022-08-09T23:29:06.613Z,2.20
2022-08-09T23:31:33.311Z,2.08
2022-08-09T23:33:59.744Z,2.20
2022-08-09T23:36:26.547Z,2.60
2022-08-09T23:38:53.141Z,2.30
2022-08-09T23:41:28.912Z,2.30
2022-08-09T23:44:00.444Z,2.30
2022-08-09T23:46:30.935Z,2.17
2022-08-09T23:48:58.538Z,2.00
2022-08-09T23:51:25.600Z,2.42
2022-08-09T23:53:55.163Z,2.15
2022-08-09T23:56:53.114Z,2.58
2022-08-09T23:59:16.198Z,2.17
